createdAt,value
2018-07-23T00:01:36.280Z,45.70
2018-07-23T00:04:05.172Z,45.60
2018-07-23T00:06:33.968Z,45.40
2018-07-23T00:09:02.885Z,45.60
2018-07-23T00:11:32.160Z,45.40
2018-07-23T00:14:01.012Z,45.50
2018-07-23T00:16:29.779Z,45.50
2018-07-23T00:18:58.644Z,45.60
2018-07-23T00:23:55.884Z,45.80
2018-07-23T00:26:24.617Z,45.80
2018-07-23T00:28:53.866Z,45.80
2018-07-23T00:31:22.606Z,45.80
2018-07-23T00:33:51.452Z,45.90
2018-07-23T00:36:20.151Z,46.00
2018-07-23T00:38:48.880Z,46.00
2018-07-23T00:41:17.628Z,46.00
2018-07-23T00:43:46.356Z,46.10
2018-07-23T00:46:15.091Z,46.20
2018-07-23T00:48:43.754Z,46.40
2018-07-23T00:51:12.432Z,46.40
2018-07-23T00:53:41.084Z,46.40
2018-07-23T00:56:09.875Z,46.50
2018-07-23T00:58:38.926Z,46.50
2018-07-23T01:01:07.607Z,46.50
2018-07-23T01:03:36.306Z,46.70
2018-07-23T01:06:05.077Z,46.60
2018-07-23T01:08:33.799Z,47.00
2018-07-23T01:11:02.514Z,46.80
2018-07-23T01:13:31.204Z,47.20
2018-07-23T01:15:59.884Z,47.40
2018-07-23T01:18:28.647Z,47.60
2018-07-23T01:23:25.757Z,47.70
2018-07-23T01:25:54.588Z,48.00
2018-07-23T01:28:23.268Z,47.80
2018-07-23T01:30:51.940Z,47.70
2018-07-23T01:33:20.847Z,47.60
2018-07-23T01:35:49.556Z,47.60
2018-07-23T01:38:18.662Z,47.60
2018-07-23T01:40:47.386Z,47.70
2018-07-23T01:43:16.096Z,47.60
2018-07-23T01:45:44.755Z,47.50
2018-07-23T01:48:13.441Z,47.50
2018-07-23T01:50:42.095Z,47.30
2018-07-23T01:53:11.180Z,47.20
2018-07-23T01:55:39.888Z,47.10
2018-07-23T01:58:08.646Z,46.90
2018-07-23T02:00:37.344Z,46.80
2018-07-23T02:03:06.113Z,46.80
2018-07-23T02:05:34.880Z,46.80
2018-07-23T02:08:05.376Z,46.70
2018-07-23T02:10:34.131Z,46.80
2018-07-23T02:13:02.816Z,46.60
2018-07-23T02:15:31.516Z,46.60
2018-07-23T02:18:00.259Z,46.60
2018-07-23T02:20:29.008Z,46.80
2018-07-23T02:22:57.695Z,47.00
2018-07-23T02:25:26.467Z,47.10
2018-07-23T02:27:55.448Z,47.70
2018-07-23T02:30:24.132Z,47.90
2018-07-23T02:32:52.865Z,48.20
2018-07-23T02:35:21.526Z,49.10
2018-07-23T02:37:50.265Z,49.20
2018-07-23T02:40:18.960Z,49.20
2018-07-23T02:42:47.763Z,49.20
2018-07-23T02:45:16.476Z,49.40
2018-07-23T02:47:45.180Z,49.30
2018-07-23T02:50:13.892Z,49.50
2018-07-23T02:52:42.608Z,49.80
2018-07-23T02:55:11.348Z,50.10
2018-07-23T02:57:41.911Z,50.60
2018-07-23T03:00:10.885Z,50.80
2018-07-23T03:02:39.667Z,52.10
2018-07-23T03:05:08.425Z,53.00
2018-07-23T03:07:37.196Z,53.30
2018-07-23T03:10:06.356Z,53.00
2018-07-23T03:12:35.160Z,52.90
2018-07-23T03:15:04.120Z,53.10
2018-07-23T03:17:32.829Z,53.40
2018-07-23T03:20:01.506Z,54.00
2018-07-23T03:22:30.268Z,53.70
2018-07-23T03:24:58.933Z,53.80
2018-07-23T03:27:27.669Z,54.00
2018-07-23T03:32:24.698Z,54.00
2018-07-23T03:34:53.351Z,53.90
2018-07-23T03:37:22.076Z,54.20
2018-07-23T03:39:51.029Z,54.40
2018-07-23T03:42:20.128Z,54.10
2018-07-23T03:44:49.112Z,53.90
2018-07-23T03:47:17.807Z,54.00
2018-07-23T03:49:46.556Z,54.10
2018-07-23T03:52:15.429Z,54.20
2018-07-23T03:54:44.111Z,53.90
2018-07-23T03:57:17.045Z,53.40
2018-07-23T03:59:45.856Z,53.40
2018-07-23T04:02:14.876Z,53.10
2018-07-23T04:04:43.692Z,53.00
2018-07-23T04:07:12.302Z,53.00
2018-07-23T04:09:41.039Z,53.20
2018-07-23T04:12:09.719Z,53.10
2018-07-23T04:14:38.332Z,52.60
2018-07-23T04:17:21.971Z,52.30
2018-07-23T04:19:50.667Z,52.00
2018-07-23T04:22:19.384Z,52.10
2018-07-23T04:24:48.027Z,52.20
2018-07-23T04:27:16.684Z,52.00
2018-07-23T04:29:45.304Z,52.00
2018-07-23T04:32:13.945Z,52.00
2018-07-23T04:34:42.610Z,52.50
2018-07-23T04:37:11.261Z,52.40
2018-07-23T04:39:40.169Z,53.00
2018-07-23T04:42:11.544Z,53.00
2018-07-23T04:44:40.264Z,53.90
2018-07-23T04:47:08.948Z,52.90
2018-07-23T04:49:37.606Z,53.40
2018-07-23T04:52:06.272Z,54.00
2018-07-23T04:54:34.904Z,53.60
2018-07-23T04:57:03.569Z,53.00
2018-07-23T04:59:32.241Z,53.50
2018-07-23T05:02:01.133Z,53.10
2018-07-23T05:04:29.760Z,52.80
2018-07-23T05:06:58.481Z,52.70
2018-07-23T05:09:27.126Z,52.90
2018-07-23T05:11:55.792Z,52.80
2018-07-23T05:14:24.417Z,52.80
2018-07-23T05:16:53.069Z,53.10
2018-07-23T05:19:21.726Z,53.00
2018-07-23T05:21:50.376Z,52.50
2018-07-23T05:24:19.033Z,52.50
2018-07-23T05:26:47.735Z,52.30
2018-07-23T05:29:16.407Z,52.20
2018-07-23T05:31:45.080Z,52.30
2018-07-23T05:34:13.766Z,52.00
2018-07-23T05:36:42.412Z,52.00
2018-07-23T05:39:12.016Z,52.20
2018-07-23T05:41:40.821Z,52.20
2018-07-23T05:44:09.520Z,52.10
2018-07-23T05:46:38.223Z,52.20
2018-07-23T05:49:06.932Z,52.50
2018-07-23T05:51:35.556Z,52.20
2018-07-23T05:54:04.280Z,51.60
2018-07-23T05:56:32.916Z,51.40
2018-07-23T05:59:01.613Z,51.00
2018-07-23T06:01:30.268Z,50.70
2018-07-23T06:03:58.941Z,50.30
2018-07-23T06:06:27.643Z,49.30
2018-07-23T06:08:56.291Z,48.90
2018-07-23T06:11:24.928Z,47.40
2018-07-23T06:13:53.555Z,46.70
2018-07-23T06:16:22.224Z,45.60
2018-07-23T06:18:50.866Z,45.10
2018-07-23T06:21:19.511Z,43.70
2018-07-23T06:23:48.196Z,43.00
2018-07-23T06:26:24.194Z,41.50
2018-07-23T06:28:52.933Z,41.20
2018-07-23T06:31:22.579Z,40.50
2018-07-23T06:33:51.286Z,39.20
2018-07-23T06:36:19.917Z,38.50
2018-07-23T06:38:48.671Z,38.00
2018-07-23T06:41:17.336Z,37.50
2018-07-23T06:43:45.973Z,37.20
2018-07-23T06:46:14.661Z,36.60
2018-07-23T06:48:43.303Z,36.40
2018-07-23T06:51:11.941Z,35.80
2018-07-23T06:53:40.591Z,34.80
2018-07-23T06:56:09.211Z,34.60
2018-07-23T07:01:06.180Z,34.20
2018-07-23T07:03:34.853Z,33.50
2018-07-23T07:06:03.492Z,33.30
2018-07-23T07:08:32.200Z,33.30
2018-07-23T07:11:01.000Z,32.70
2018-07-23T07:13:29.687Z,32.70
2018-07-23T07:15:58.328Z,32.50
2018-07-23T07:18:26.977Z,32.30
2018-07-23T07:20:55.652Z,32.20
2018-07-23T07:23:24.315Z,32.10
2018-07-23T07:25:52.994Z,31.20
2018-07-23T07:28:21.627Z,31.10
2018-07-23T07:30:50.313Z,30.70
2018-07-23T07:33:18.957Z,31.50
2018-07-23T07:35:47.721Z,32.30
2018-07-23T07:38:16.418Z,30.80
2018-07-23T07:40:45.088Z,30.40
2018-07-23T07:43:13.759Z,30.90
2018-07-23T07:45:44.015Z,31.30
2018-07-23T07:48:12.696Z,31.20
2018-07-23T07:50:41.356Z,31.00
2018-07-23T07:53:10.088Z,30.80
2018-07-23T07:55:38.812Z,30.70
2018-07-23T07:58:07.451Z,30.60
2018-07-23T08:00:36.100Z,30.70
2018-07-23T08:03:04.768Z,31.10
2018-07-23T08:05:33.434Z,30.50
2018-07-23T08:08:02.124Z,30.10
2018-07-23T08:10:30.780Z,30.60
2018-07-23T08:12:59.396Z,30.30
2018-07-23T08:17:56.387Z,30.50
2018-07-23T08:20:25.068Z,30.50
2018-07-23T08:22:53.722Z,30.00
2018-07-23T08:25:22.527Z,30.50
2018-07-23T08:27:51.181Z,30.50
2018-07-23T08:30:19.856Z,30.60
2018-07-23T08:32:48.480Z,31.10
2018-07-23T08:35:17.099Z,31.20
2018-07-23T08:37:45.763Z,31.40
2018-07-23T08:40:14.385Z,31.00
2018-07-23T08:42:43.052Z,30.60
2018-07-23T08:45:11.685Z,31.40
2018-07-23T08:50:08.597Z,31.70
2018-07-23T08:52:37.265Z,31.80
2018-07-23T08:55:05.934Z,31.50
2018-07-23T08:57:34.541Z,32.10
2018-07-23T09:00:03.388Z,31.80
2018-07-23T09:02:32.024Z,31.80
2018-07-23T09:05:00.640Z,31.80
2018-07-23T09:07:29.360Z,32.20
2018-07-23T09:09:57.993Z,32.40
2018-07-23T09:12:26.732Z,32.70
2018-07-23T09:14:55.472Z,32.20
2018-07-23T09:17:24.100Z,32.10
2018-07-23T09:19:52.728Z,31.90
2018-07-23T09:22:21.384Z,32.00
2018-07-23T09:24:50.348Z,31.70
2018-07-23T09:29:47.335Z,32.00
2018-07-23T09:32:16.445Z,31.90
2018-07-23T09:34:45.659Z,31.90
2018-07-23T09:37:14.352Z,32.10
2018-07-23T09:39:43.365Z,31.70
2018-07-23T09:42:12.069Z,31.80
2018-07-23T09:47:09.023Z,32.40
2018-07-23T09:49:37.735Z,31.10
2018-07-23T09:52:06.469Z,30.70
2018-07-23T09:54:35.125Z,30.50
2018-07-23T09:57:03.839Z,30.30
2018-07-23T09:59:32.582Z,30.60
2018-07-23T10:02:01.232Z,30.60
2018-07-23T10:04:29.923Z,30.80
2018-07-23T10:06:58.552Z,30.00
2018-07-23T10:09:27.538Z,29.40
2018-07-23T10:11:56.248Z,29.40
2018-07-23T10:14:24.936Z,29.40
2018-07-23T10:16:53.573Z,29.20
2018-07-23T10:19:22.188Z,29.00
2018-07-23T10:21:50.840Z,28.80
2018-07-23T10:24:19.478Z,28.80
2018-07-23T10:26:48.092Z,29.00
2018-07-23T10:29:17.189Z,28.50
2018-07-23T10:31:45.881Z,28.50
2018-07-23T10:34:14.620Z,28.30
2018-07-23T10:36:43.327Z,28.30
2018-07-23T10:39:11.956Z,28.10
2018-07-23T10:41:40.645Z,28.20
2018-07-23T10:44:09.452Z,27.70
2018-07-23T10:46:38.080Z,27.60
2018-07-23T10:49:06.843Z,27.40
2018-07-23T10:51:35.509Z,27.10
2018-07-23T10:54:04.353Z,27.10
2018-07-23T10:56:33.010Z,26.90
2018-07-23T10:59:01.713Z,26.80
2018-07-23T11:01:30.345Z,27.50
2018-07-23T11:03:59.520Z,27.30
2018-07-23T11:06:28.160Z,27.30
2018-07-23T11:08:56.836Z,27.20
2018-07-23T11:11:25.488Z,26.80
2018-07-23T11:13:54.336Z,26.90
2018-07-23T11:16:23.056Z,27.20
2018-07-23T11:18:51.692Z,27.00
2018-07-23T11:21:20.328Z,27.00
2018-07-23T11:23:48.961Z,27.20
2018-07-23T11:26:17.634Z,27.50
2018-07-23T11:28:46.284Z,27.10
2018-07-23T11:31:14.929Z,26.90
2018-07-23T11:33:43.538Z,26.70
2018-07-23T11:38:40.482Z,26.50
2018-07-23T11:41:09.141Z,26.30
2018-07-23T11:43:37.920Z,26.20
2018-07-23T11:46:06.600Z,25.80
2018-07-23T11:48:35.223Z,25.90
2018-07-23T11:51:04.542Z,26.00
2018-07-23T11:53:33.204Z,26.30
2018-07-23T11:56:01.881Z,26.10
2018-07-23T11:58:30.503Z,25.80
2018-07-23T12:00:59.184Z,26.40
2018-07-23T12:03:27.896Z,26.20
2018-07-23T12:05:56.516Z,26.00
2018-07-23T12:08:25.221Z,25.70
2018-07-23T12:10:53.883Z,25.80
2018-07-23T12:13:22.532Z,25.70
2018-07-23T12:15:51.203Z,25.70
2018-07-23T12:18:19.864Z,26.10
2018-07-23T12:20:48.500Z,25.50
2018-07-23T12:23:17.167Z,25.50
2018-07-23T12:25:45.821Z,25.80
2018-07-23T12:28:14.536Z,25.80
2018-07-23T12:30:43.180Z,25.80
2018-07-23T12:33:11.805Z,25.80
2018-07-23T12:35:40.420Z,25.10
2018-07-23T12:38:09.041Z,25.00
2018-07-23T12:40:37.674Z,24.70
2018-07-23T12:43:06.330Z,25.10
2018-07-23T12:45:34.999Z,25.10
2018-07-23T12:48:03.696Z,25.20
2018-07-23T12:50:32.348Z,25.30
2018-07-23T12:53:01.020Z,25.30
2018-07-23T12:55:33.457Z,25.60
2018-07-23T12:58:02.119Z,25.60
2018-07-23T13:00:30.780Z,25.90
2018-07-23T13:02:59.475Z,26.10
2018-07-23T13:05:32.450Z,25.60
2018-07-23T13:08:02.961Z,25.10
2018-07-23T13:10:31.672Z,25.50
2018-07-23T13:13:00.411Z,25.00
2018-07-23T13:15:31.312Z,25.00
2018-07-23T13:18:00.252Z,25.60
2018-07-23T13:20:28.960Z,25.40
2018-07-23T13:22:57.847Z,25.50
2018-07-23T13:25:26.554Z,25.40
2018-07-23T13:27:55.292Z,25.50
2018-07-23T13:30:24.058Z,25.60
2018-07-23T13:35:21.157Z,25.80
2018-07-23T13:37:49.908Z,25.40
2018-07-23T13:40:18.760Z,25.50
2018-07-23T13:42:51.102Z,25.50
2018-07-23T13:45:20.164Z,25.00
2018-07-23T13:50:17.380Z,25.30
2018-07-23T13:52:46.027Z,24.80
2018-07-23T13:55:14.797Z,25.00
2018-07-23T13:57:43.501Z,24.80
2018-07-23T14:00:12.231Z,24.90
2018-07-23T14:02:41.049Z,24.50
2018-07-23T14:05:09.777Z,24.70
2018-07-23T14:07:39.576Z,24.40
2018-07-23T14:10:08.732Z,24.40
2018-07-23T14:12:38.476Z,24.70
2018-07-23T14:17:35.523Z,24.50
2018-07-23T14:20:06.773Z,24.50
2018-07-23T14:22:37.248Z,24.60
2018-07-23T14:25:06.930Z,25.70
2018-07-23T14:27:38.949Z,25.60
2018-07-23T14:30:08.251Z,25.40
2018-07-23T14:32:37.055Z,25.60
2018-07-23T14:35:09.296Z,25.80
2018-07-23T14:37:39.044Z,25.50
2018-07-23T14:40:08.436Z,25.70
2018-07-23T14:42:39.686Z,25.70
2018-07-23T14:45:15.750Z,25.80
2018-07-23T14:47:58.547Z,26.50
2018-07-23T14:50:39.499Z,26.10
2018-07-23T14:53:15.180Z,26.60
2018-07-23T14:55:49.719Z,26.70
2018-07-23T15:00:48.747Z,26.30
2018-07-23T15:03:18.606Z,26.40
2018-07-23T15:06:16.253Z,26.30
2018-07-23T15:08:45.956Z,26.40
2018-07-23T15:11:15.110Z,26.50
2018-07-23T15:13:44.108Z,26.60
2018-07-23T15:16:12.788Z,26.90
2018-07-23T15:18:41.447Z,26.70
2018-07-23T15:21:10.400Z,26.70
2018-07-23T15:23:47.252Z,26.90
2018-07-23T15:26:16.052Z,26.50
2018-07-23T15:28:44.715Z,27.40
2018-07-23T15:31:13.384Z,27.10
2018-07-23T15:33:42.191Z,26.80
2018-07-23T15:36:11.854Z,26.60
2018-07-23T15:38:44.196Z,26.90
2018-07-23T15:41:27.634Z,27.10
2018-07-23T15:43:57.556Z,26.90
2018-07-23T15:46:29.561Z,27.10
2018-07-23T15:49:00.111Z,27.20
2018-07-23T15:51:41.535Z,27.40
2018-07-23T15:54:10.348Z,27.50
2018-07-23T15:56:39.057Z,27.50
2018-07-23T15:59:07.816Z,27.20
2018-07-23T16:01:37.468Z,27.20
2018-07-23T16:04:06.136Z,27.40
2018-07-23T16:06:35.372Z,27.30
2018-07-23T16:09:06.718Z,27.30
2018-07-23T16:11:35.975Z,28.10
2018-07-23T16:14:05.017Z,28.20
2018-07-23T16:16:34.647Z,27.90
2018-07-23T16:19:03.389Z,27.80
2018-07-23T16:21:32.095Z,27.70
2018-07-23T16:24:00.807Z,27.40
2018-07-23T16:26:29.556Z,27.60
2018-07-23T16:28:58.700Z,27.50
2018-07-23T16:31:28.344Z,27.50
2018-07-23T16:33:56.989Z,27.90
2018-07-23T16:36:25.645Z,27.70
2018-07-23T16:38:54.448Z,27.60
2018-07-23T16:41:23.137Z,27.80
2018-07-23T16:43:59.155Z,28.20
2018-07-23T16:48:56.230Z,28.30
2018-07-23T16:51:31.192Z,28.20
2018-07-23T16:54:08.758Z,28.20
2018-07-23T16:56:37.548Z,28.70
2018-07-23T16:59:06.292Z,28.80
2018-07-23T17:01:35.132Z,28.30
2018-07-23T17:04:03.838Z,28.50
2018-07-23T17:06:32.549Z,28.40
2018-07-23T17:09:01.244Z,28.30
2018-07-23T17:11:29.900Z,28.40
2018-07-23T17:13:58.592Z,28.50
2018-07-23T17:16:27.251Z,28.40
2018-07-23T17:18:56.010Z,28.60
2018-07-23T17:21:24.764Z,28.30
2018-07-23T17:23:53.403Z,28.60
2018-07-23T17:26:22.724Z,28.80
2018-07-23T17:28:51.424Z,28.80
2018-07-23T17:31:20.127Z,28.80
2018-07-23T17:33:48.779Z,28.80
2018-07-23T17:36:19.564Z,28.90
2018-07-23T17:39:06.740Z,29.40
2018-07-23T17:41:36.495Z,29.60
2018-07-23T17:44:05.215Z,29.60
2018-07-23T17:46:33.855Z,29.50
2018-07-23T17:49:02.582Z,29.70
2018-07-23T17:51:31.297Z,30.00
2018-07-23T17:53:59.954Z,30.00
2018-07-23T17:56:28.664Z,29.90
2018-07-23T17:58:57.692Z,29.80
2018-07-23T18:01:26.434Z,30.00
2018-07-23T18:03:55.172Z,30.20
2018-07-23T18:06:23.870Z,30.30
2018-07-23T18:08:52.507Z,30.60
2018-07-23T18:11:23.988Z,30.60
2018-07-23T18:16:21.095Z,30.90
2018-07-23T18:18:49.731Z,30.90
2018-07-23T18:21:19.372Z,31.00
2018-07-23T18:23:56.529Z,31.10
2018-07-23T18:26:44.403Z,31.40
2018-07-23T18:29:24.210Z,31.70
2018-07-23T18:32:02.774Z,32.20
2018-07-23T18:34:35.988Z,32.40
2018-07-23T18:37:04.879Z,32.40
2018-07-23T18:39:38.605Z,33.50
2018-07-23T18:44:45.687Z,34.60
2018-07-23T18:47:14.657Z,35.40
2018-07-23T18:50:03.202Z,36.60
2018-07-23T18:52:37.260Z,37.10
2018-07-23T18:55:08.119Z,38.60
2018-07-23T18:57:44.858Z,38.60
2018-07-23T19:00:20.734Z,40.40
2018-07-23T19:02:54.224Z,40.00
2018-07-23T19:05:27.547Z,39.30
2018-07-23T19:07:56.193Z,40.00
2018-07-23T19:10:24.858Z,41.20
2018-07-23T19:12:53.507Z,41.80
2018-07-23T19:15:22.191Z,41.80
2018-07-23T19:17:50.808Z,42.90
2018-07-23T19:20:19.563Z,42.80
2018-07-23T19:22:48.205Z,43.70
2018-07-23T19:25:16.869Z,44.40
2018-07-23T19:27:46.507Z,45.40
2018-07-23T19:30:15.149Z,45.70
2018-07-23T19:32:43.755Z,46.10
2018-07-23T19:35:12.406Z,46.40
2018-07-23T19:37:41.034Z,46.50
2018-07-23T19:40:09.692Z,46.90
2018-07-23T19:42:38.287Z,47.60
2018-07-23T19:45:06.919Z,47.40
2018-07-23T19:47:35.574Z,47.70
2018-07-23T19:50:04.591Z,47.60
2018-07-23T19:52:33.224Z,48.40
2018-07-23T19:55:01.852Z,48.70
2018-07-23T19:57:30.981Z,48.30
2018-07-23T19:59:59.575Z,48.50
2018-07-23T20:02:42.779Z,49.00
2018-07-23T20:05:11.550Z,49.30
2018-07-23T20:07:40.172Z,50.00
2018-07-23T20:10:08.808Z,49.80
2018-07-23T20:12:37.460Z,50.70
2018-07-23T20:15:06.199Z,51.10
2018-07-23T20:17:34.823Z,51.40
2018-07-23T20:20:03.559Z,51.60
2018-07-23T20:22:32.165Z,51.60
2018-07-23T20:25:00.775Z,51.30
2018-07-23T20:27:29.391Z,52.40
2018-07-23T20:29:57.984Z,51.90
2018-07-23T20:32:26.584Z,52.10
2018-07-23T20:34:55.419Z,52.10
2018-07-23T20:37:24.020Z,53.00
2018-07-23T20:39:52.627Z,52.60
2018-07-23T20:42:21.296Z,52.60
2018-07-23T20:44:50.033Z,52.70
2018-07-23T20:47:18.694Z,52.70
2018-07-23T20:49:47.383Z,53.00
2018-07-23T20:52:16.009Z,53.60
2018-07-23T20:54:44.612Z,54.40
2018-07-23T20:57:13.293Z,54.50
2018-07-23T20:59:41.963Z,54.70
2018-07-23T21:02:10.624Z,55.00
2018-07-23T21:07:07.516Z,55.50
2018-07-23T21:09:36.149Z,55.50
2018-07-23T21:12:04.872Z,55.40
2018-07-23T21:14:33.495Z,55.40
2018-07-23T21:17:02.140Z,55.40
2018-07-23T21:19:30.746Z,55.20
2018-07-23T21:21:59.396Z,55.40
2018-07-23T21:24:28.000Z,55.30
2018-07-23T21:26:56.615Z,54.90
2018-07-23T21:29:25.236Z,55.00
2018-07-23T21:34:22.183Z,55.20
2018-07-23T21:36:50.816Z,55.10
2018-07-23T21:39:19.439Z,55.60
2018-07-23T21:41:48.136Z,56.10
2018-07-23T21:44:16.799Z,56.30
2018-07-23T21:46:45.432Z,56.30
2018-07-23T21:51:42.311Z,56.20
2018-07-23T21:54:10.967Z,56.60
2018-07-23T21:56:39.598Z,56.80
2018-07-23T21:59:08.215Z,57.30
2018-07-23T22:01:36.695Z,57.70
2018-07-23T22:04:05.259Z,57.10
2018-07-23T22:06:33.726Z,57.40
2018-07-23T22:09:02.183Z,58.60
2018-07-23T22:11:30.680Z,59.00
2018-07-23T22:13:59.151Z,58.60
2018-07-23T22:18:55.765Z,58.20
2018-07-23T22:21:24.219Z,57.90
2018-07-23T22:23:52.663Z,58.10
2018-07-23T22:26:21.141Z,58.50
2018-07-23T22:28:49.602Z,58.90
2018-07-23T22:31:18.074Z,59.30
2018-07-23T22:33:46.652Z,59.70
2018-07-23T22:36:15.107Z,59.70
2018-07-23T22:38:43.586Z,59.80
2018-07-23T22:41:12.039Z,59.90
2018-07-23T22:43:40.502Z,59.50
2018-07-23T22:46:08.979Z,59.60
2018-07-23T22:48:37.436Z,60.10
2018-07-23T22:51:06.018Z,60.20
2018-07-23T22:53:34.503Z,60.30
2018-07-23T22:56:03.011Z,60.80
2018-07-23T22:58:31.654Z,60.90
2018-07-23T23:01:00.147Z,61.40
2018-07-23T23:03:28.662Z,61.30
2018-07-23T23:05:57.110Z,61.10
2018-07-23T23:08:25.586Z,60.80
2018-07-23T23:10:54.034Z,61.00
2018-07-23T23:13:22.474Z,61.10
2018-07-23T23:15:50.907Z,60.90
2018-07-23T23:18:19.342Z,61.00
2018-07-23T23:20:47.825Z,60.80
2018-07-23T23:25:44.430Z,61.50
2018-07-23T23:28:12.863Z,61.80
2018-07-23T23:30:41.302Z,62.10
2018-07-23T23:33:09.803Z,61.80
2018-07-23T23:35:38.298Z,62.00
2018-07-23T23:38:06.735Z,61.90
2018-07-23T23:40:35.174Z,62.40
2018-07-23T23:43:03.651Z,62.80
2018-07-23T23:45:32.107Z,63.30
2018-07-23T23:48:00.550Z,63.30
2018-07-23T23:50:29.034Z,63.20
2018-07-23T23:52:57.474Z,62.40
2018-07-23T23:55:25.918Z,62.40
2018-07-23T23:57:54.367Z,62.40
